Time;durP1;ratioP1;P1;durP2;ratioP2;P2;SDS_P1;SDS_P2;PMS_P1;PMS_P2;Temp;Humidity;BMP_temperature;BMP_pressure;BME280_temperature;BME280_humidity;BME280_pressure;Samples;Min_cycle;Max_cycle;Signal;HPM_P1;HPM_P2
2022/04/29 03:00:35;;;;;;;1.20;1.10;;;19.80;47.50;;;;;;6096194;23;45884;31
2022/04/29 03:03:01;;;;;;;1.42;1.33;;;19.80;47.50;;;;;;4866141;29;48006;-68
2022/04/29 03:05:27;;;;;;;1.20;1.10;;;19.80;47.60;;;;;;4852628;29;44855;-69
2022/04/29 03:07:53;;;;;;;1.30;1.20;;;19.80;47.60;;;;;;4856060;29;45350;-68
2022/04/29 03:10:18;;;;;;;1.40;1.30;;;19.80;47.60;;;;;;4833323;29;45158;-69
2022/04/29 03:12:44;;;;;;;1.20;1.10;;;19.70;47.60;;;;;;4847595;29;47375;-69
2022/04/29 03:15:16;;;;;;;1.40;1.15;;;19.70;47.50;;;;;;4877317;29;45170;-69
2022/04/29 03:20:34;;;;;;;1.30;1.20;;;19.70;47.60;;;;;;4857785;29;45348;-68
2022/04/29 03:22:59;;;;;;;1.92;1.20;;;19.70;47.60;;;;;;4883349;29;45160;-69
2022/04/29 03:25:25;;;;;;;1.65;1.40;;;19.70;47.60;;;;;;4840033;29;44753;-68
2022/04/29 03:27:51;;;;;;;1.40;1.30;;;19.70;47.60;;;;;;4872721;29;45507;-68
2022/04/29 03:30:16;;;;;;;1.48;1.23;;;19.70;47.60;;;;;;4883694;28;45236;-68
2022/04/29 03:32:53;;;;;;;1.02;0.93;;;19.70;47.60;;;;;;4873893;29;45958;-69
2022/04/29 03:35:19;;;;;;;1.10;1.00;;;19.70;47.60;;;;;;4855318;29;45408;-68
2022/04/29 03:37:45;;;;;;;1.20;1.10;;;19.70;47.60;;;;;;4863369;29;45379;-68
2022/04/29 03:40:11;;;;;;;1.40;1.00;;;19.70;47.60;;;;;;4860094;29;45396;-69
2022/04/29 03:42:36;;;;;;;1.48;1.10;;;19.70;47.70;;;;;;4872994;29;45147;-69
2022/04/29 03:45:02;;;;;;;0.90;0.90;;;19.70;47.70;;;;;;4875943;29;45420;-68
2022/04/29 03:47:28;;;;;;;1.30;1.20;;;19.70;47.70;;;;;;4874572;29;45449;-68
2022/04/29 03:49:53;;;;;;;1.10;1.00;;;19.70;47.60;;;;;;4868892;29;45130;-69
2022/04/29 03:52:19;;;;;;;0.82;0.82;;;19.70;47.70;;;;;;4869753;29;45685;-68
2022/04/29 03:54:44;;;;;;;1.38;1.27;;;19.70;47.70;;;;;;4857749;29;44770;-68
2022/04/29 03:57:10;;;;;;;1.25;1.10;;;19.70;47.70;;;;;;4868914;29;45395;-68
2022/04/29 03:59:36;;;;;;;0.80;0.80;;;19.70;47.70;;;;;;4876050;29;45412;-68
2022/04/29 04:02:02;;;;;;;1.27;1.17;;;19.60;47.60;;;;;;4855741;29;47338;-68
2022/04/29 04:04:28;;;;;;;1.17;1.08;;;19.70;47.70;;;;;;4855444;29;44716;-69
2022/04/29 04:07:00;;;;;;;1.15;1.00;;;19.70;47.70;;;;;;4872000;29;45415;-68
2022/04/29 04:09:26;;;;;;;0.88;0.88;;;19.60;47.60;;;;;;4861108;29;45581;-69
2022/04/29 04:11:52;;;;;;;1.27;1.17;;;19.60;47.60;;;;;;4822794;29;47210;-69
2022/04/29 04:14:18;;;;;;;1.35;1.10;;;19.60;47.70;;;;;;4879231;29;45277;-68
2022/04/29 04:16:44;;;;;;;1.20;1.10;;;19.60;47.70;;;;;;4884590;28;45550;-68
2022/04/29 04:19:10;;;;;;;1.42;1.33;;;19.60;47.70;;;;;;4878651;29;45188;-69
2022/04/29 04:21:35;;;;;;;1.42;1.17;;;19.60;47.70;;;;;;4845719;29;48469;-68
2022/04/29 04:24:01;;;;;;;1.60;1.17;;;19.60;47.70;;;;;;4877440;29;45531;-68
2022/04/29 04:26:27;;;;;;;1.00;1.00;;;19.60;47.70;;;;;;4874477;29;45088;-68
2022/04/29 04:28:52;;;;;;;1.13;1.05;;;19.60;47.70;;;;;;4873674;29;45514;-69
2022/04/29 04:31:21;;;;;;;1.27;1.13;;;19.60;47.70;;;;;;4864245;29;45747;-68
2022/04/29 04:33:47;;;;;;;1.75;1.17;;;19.60;47.70;;;;;;4878296;29;45413;-69
2022/04/29 04:36:13;;;;;;;1.15;1.05;;;19.60;47.70;;;;;;4859935;29;45700;-68
2022/04/29 04:38:38;;;;;;;1.13;1.00;;;19.60;47.70;;;;;;4871637;29;45782;-69
2022/04/29 04:41:04;;;;;;;1.10;1.00;;;19.60;47.70;;;;;;4871932;29;46899;-68
2022/04/29 04:43:30;;;;;;;1.23;1.08;;;19.60;47.70;;;;;;4871788;29;44684;-69
2022/04/29 04:45:56;;;;;;;1.50;1.15;;;19.60;47.70;;;;;;4875955;29;45444;-69
2022/04/29 04:48:21;;;;;;;1.30;1.20;;;19.60;47.70;;;;;;4870952;29;45583;-68
2022/04/29 04:50:47;;;;;;;1.38;1.27;;;19.60;47.70;;;;;;4856904;29;46806;-68
2022/04/29 04:53:13;;;;;;;1.23;1.13;;;19.60;47.70;;;;;;4874457;29;45480;-69
2022/04/29 04:55:39;;;;;;;1.25;1.15;;;19.60;47.80;;;;;;4874482;29;45250;-68
2022/04/29 04:58:05;;;;;;;1.25;1.15;;;19.60;47.80;;;;;;4871980;29;45542;-68
2022/04/29 05:00:30;;;;;;;1.20;1.10;;;19.60;47.70;;;;;;4873177;29;45514;-69
2022/04/29 05:02:56;;;;;;;1.13;1.02;;;19.60;47.70;;;;;;4865724;29;45305;-68
2022/04/29 05:05:23;;;;;;;1.23;1.13;;;19.50;47.70;;;;;;4872461;29;45769;-69
2022/04/29 05:07:49;;;;;;;1.08;1.05;;;19.50;47.70;;;;;;4851019;29;45409;-68
2022/04/29 05:10:15;;;;;;;1.10;1.00;;;19.50;47.70;;;;;;4885122;28;45512;-68
2022/04/29 05:12:45;;;;;;;1.52;1.10;;;19.50;47.70;;;;;;4865886;29;45302;-69
2022/04/29 05:15:14;;;;;;;1.40;1.30;;;19.50;47.70;;;;;;4854544;29;44805;-69
2022/04/29 05:17:40;;;;;;;1.17;1.10;;;19.50;47.70;;;;;;4826571;29;45202;-69
2022/04/29 05:20:10;;;;;;;0.90;0.90;;;19.50;47.70;;;;;;4841967;29;45148;-67
2022/04/29 05:22:36;;;;;;;1.35;1.25;;;19.50;47.70;;;;;;4854222;29;45091;-67
2022/04/29 05:25:02;;;;;;;1.00;1.00;;;19.50;47.70;;;;;;4868877;29;45385;-67
2022/04/29 05:27:28;;;;;;;1.20;1.10;;;19.60;47.70;;;;;;4869810;29;46006;-68
2022/04/29 05:29:53;;;;;;;0.93;0.90;;;19.60;47.70;;;;;;4865202;29;45375;-68
2022/04/29 05:32:19;;;;;;;1.23;1.13;;;19.60;47.60;;;;;;4867108;29;45455;-67
2022/04/29 05:34:45;;;;;;;1.70;1.00;;;19.60;47.60;;;;;;4860814;29;45256;-68
2022/04/29 05:37:10;;;;;;;1.30;1.08;;;19.60;47.50;;;;;;4844309;29;45163;-69
2022/04/29 05:42:22;;;;;;;1.60;1.35;;;19.60;47.40;;;;;;4866865;29;45006;-70
2022/04/29 05:44:48;;;;;;;1.33;1.10;;;19.70;47.40;;;;;;4863785;29;45634;-69
2022/04/29 05:47:14;;;;;;;2.17;1.33;;;19.70;47.40;;;;;;4866455;29;44884;-69
2022/04/29 05:49:39;;;;;;;1.27;1.13;;;19.70;47.40;;;;;;4870492;29;45545;-69
2022/04/29 05:52:06;;;;;;;1.40;1.27;;;19.70;47.40;;;;;;4857083;29;45563;-69
2022/04/29 05:54:31;;;;;;;1.10;1.10;;;19.70;47.40;;;;;;4873660;29;44765;-69
2022/04/29 05:56:58;;;;;;;1.13;1.02;;;19.70;47.90;;;;;;4868928;29;45306;-68
2022/04/29 05:59:23;;;;;;;1.48;1.35;;;19.70;47.30;;;;;;4874632;29;45502;-69
2022/04/29 06:01:49;;;;;;;1.10;1.00;;;19.70;47.30;;;;;;4837779;29;45246;-69
2022/04/29 06:04:14;;;;;;;1.40;1.20;;;19.70;47.30;;;;;;4869208;29;45199;-69
2022/04/29 06:06:40;;;;;;;1.50;1.40;;;19.80;47.30;;;;;;4879911;29;45941;-69
2022/04/29 06:09:06;;;;;;;0.82;0.82;;;19.80;47.20;;;;;;4885994;28;45613;-69
2022/04/29 06:11:31;;;;;;;1.15;1.05;;;19.80;47.10;;;;;;4869758;29;45412;-69
2022/04/29 06:13:57;;;;;;;1.52;1.10;;;19.90;47.00;;;;;;4877834;29;45549;-69
2022/04/29 06:16:22;;;;;;;1.27;1.13;;;20.00;46.80;;;;;;4865163;29;45394;-69
2022/04/29 06:18:48;;;;;;;1.65;1.23;;;20.00;46.70;;;;;;4867905;29;46718;-69
2022/04/29 06:21:16;;;;;;;1.10;1.00;;;20.10;46.60;;;;;;4875652;29;45027;-69
2022/04/29 06:23:42;;;;;;;1.33;1.23;;;20.10;46.50;;;;;;4861845;29;45162;-69
2022/04/29 06:26:08;;;;;;;1.15;1.05;;;20.10;46.40;;;;;;4859295;29;45225;-69
2022/04/29 06:28:34;;;;;;;1.63;1.20;;;20.20;46.50;;;;;;4871272;29;45565;-69
2022/04/29 06:31:00;;;;;;;1.52;1.10;;;20.20;46.40;;;;;;4872965;29;45267;-68
2022/04/29 06:33:29;;;;;;;1.30;1.20;;;20.10;46.50;;;;;;4848365;29;45301;-69
2022/04/29 06:35:55;;;;;;;1.45;1.27;;;20.10;46.50;;;;;;4873668;29;45557;-69
2022/04/29 06:38:21;;;;;;;1.38;1.27;;;20.10;46.50;;;;;;4870651;29;46439;-71
2022/04/29 06:40:46;;;;;;;1.20;1.02;;;20.20;46.60;;;;;;4866036;29;45396;-74
2022/04/29 06:43:12;;;;;;;0.82;0.82;;;20.10;47.10;;;;;;4869904;29;45163;-72
2022/04/29 06:45:38;;;;;;;1.15;1.05;;;20.10;46.60;;;;;;4883385;28;45171;-70
2022/04/29 06:48:04;;;;;;;1.27;1.10;;;20.20;46.70;;;;;;4879721;28;46490;-75
2022/04/29 06:50:31;;;;;;;1.20;1.10;;;20.30;46.70;;;;;;4860928;29;45361;-74
2022/04/29 06:52:57;;;;;;;1.40;1.00;;;20.40;46.60;;;;;;4861163;29;44873;-69
2022/04/29 06:55:23;;;;;;;0.82;0.82;;;20.50;46.50;;;;;;4871323;29;46466;-69
2022/04/29 06:57:48;;;;;;;1.17;1.08;;;20.60;46.40;;;;;;4869071;29;45290;-70
2022/04/29 07:00:14;;;;;;;1.00;1.00;;;20.70;46.30;;;;;;4873982;29;45439;-71
2022/04/29 07:02:41;;;;;;;1.10;1.00;;;20.80;46.20;;;;;;4867618;29;45047;-71
2022/04/29 07:05:08;;;;;;;1.42;0.90;;;20.90;46.10;;;;;;4824258;29;45191;-70
2022/04/29 07:07:34;;;;;;;0.82;0.82;;;21.00;46.00;;;;;;4867054;29;46975;-68
2022/04/29 07:09:59;;;;;;;0.80;0.70;;;21.10;45.90;;;;;;4869967;29;45309;-70
2022/04/29 07:12:25;;;;;;;0.88;0.80;;;21.30;45.90;;;;;;4869565;29;45466;-71
2022/04/29 07:14:52;;;;;;;1.10;1.00;;;21.40;45.90;;;;;;4854086;29;45324;-70
2022/04/29 07:17:20;;;;;;;0.73;0.73;;;21.50;45.70;;;;;;4869990;29;45444;-70
2022/04/29 07:19:46;;;;;;;0.95;0.85;;;21.60;45.60;;;;;;4850984;29;45009;-71
2022/04/29 07:22:11;;;;;;;1.50;1.00;;;21.70;46.20;;;;;;4870150;29;45281;-70
2022/04/29 07:24:37;;;;;;;1.00;0.90;;;21.80;45.50;;;;;;4875149;29;45536;-70
2022/04/29 07:27:03;;;;;;;0.85;0.80;;;21.90;45.40;;;;;;4856055;29;45584;-70
2022/04/29 07:29:29;;;;;;;0.90;0.90;;;22.10;45.40;;;;;;4857348;29;45455;-70
2022/04/29 07:31:55;;;;;;;0.70;0.70;;;22.10;45.30;;;;;;4868061;29;45208;-69
2022/04/29 07:41:44;;;;;;;0.70;0.70;;;22.30;45.30;;;;;;4872825;29;45635;-70
2022/04/29 07:42:35;;;;;;;1.00;0.90;;;22.50;45.00;;;;;;4877088;29;45088;-70
2022/04/29 07:45:01;;;;;;;0.80;0.70;;;22.70;45.00;;;;;;4856455;29;44806;-70
2022/04/29 07:47:27;;;;;;;1.00;0.90;;;22.70;44.90;;;;;;4861001;29;45316;-71
2022/04/29 07:49:53;;;;;;;0.70;0.57;;;22.80;45.00;;;;;;4860806;29;44728;-71
2022/04/29 07:52:18;;;;;;;1.02;0.70;;;22.90;44.90;;;;;;4858735;29;45306;-72
2022/04/29 07:54:44;;;;;;;0.70;0.65;;;23.00;44.90;;;;;;4857775;29;45501;-71
2022/04/29 07:57:09;;;;;;;0.73;0.73;;;23.00;44.90;;;;;;4854736;29;47846;-70
2022/04/29 07:59:35;;;;;;;0.60;0.60;;;23.10;44.80;;;;;;4873735;29;45464;-70
2022/04/29 08:02:01;;;;;;;0.70;0.70;;;23.20;44.80;;;;;;4875047;29;45417;-71
2022/04/29 08:04:27;;;;;;;0.70;0.70;;;23.20;44.70;;;;;;4855337;29;45424;-71
2022/04/29 08:06:53;;;;;;;0.60;0.60;;;23.30;44.70;;;;;;4858897;29;47281;-72
2022/04/29 08:09:18;;;;;;;0.68;0.68;;;23.40;44.70;;;;;;4859509;29;45233;-71
2022/04/29 08:11:44;;;;;;;1.05;0.80;;;23.40;44.60;;;;;;4871762;29;44781;-71
2022/04/29 08:14:10;;;;;;;2.28;0.80;;;23.50;44.60;;;;;;4873848;29;45373;-72
2022/04/29 08:16:35;;;;;;;0.93;0.70;;;23.50;44.50;;;;;;4856599;29;46093;-72
2022/04/29 08:19:01;;;;;;;0.70;0.70;;;23.60;44.40;;;;;;4843476;29;45500;-71
2022/04/29 08:21:27;;;;;;;0.93;0.70;;;23.70;44.50;;;;;;4871802;29;45488;-72
2022/04/29 08:23:53;;;;;;;1.10;1.00;;;23.70;44.40;;;;;;4853675;29;45636;-71
2022/04/29 08:26:18;;;;;;;1.02;0.80;;;23.80;44.40;;;;;;4854549;29;45230;-71
2022/04/29 08:28:44;;;;;;;0.60;0.60;;;23.80;44.30;;;;;;4889333;29;45216;-71
2022/04/29 08:31:10;;;;;;;1.10;0.70;;;23.90;44.30;;;;;;4886658;28;45606;-70
2022/04/29 08:33:35;;;;;;;0.80;0.70;;;23.90;44.30;;;;;;4858250;29;45267;-70
2022/04/29 08:36:01;;;;;;;0.98;0.82;;;24.00;44.30;;;;;;4875351;29;46076;-69
2022/04/29 08:38:27;;;;;;;1.02;0.77;;;24.00;44.30;;;;;;4879811;29;45281;-68
2022/04/29 08:40:52;;;;;;;0.50;0.50;;;24.10;44.20;;;;;;4871147;29;45201;-69
2022/04/29 08:43:21;;;;;;;0.80;0.70;;;24.10;44.20;;;;;;4890165;28;45371;-67
2022/04/29 08:45:46;;;;;;;1.02;0.80;;;24.10;44.20;;;;;;4871571;29;45238;-68
2022/04/29 08:48:12;;;;;;;1.60;0.80;;;24.20;44.20;;;;;;4857836;29;45354;-69
2022/04/29 08:50:38;;;;;;;0.45;0.45;;;24.20;44.60;;;;;;4872982;29;45242;-69
2022/04/29 08:53:04;;;;;;;0.80;0.80;;;24.30;44.10;;;;;;4877878;29;45583;-68
2022/04/29 09:01:04;;;;;;;0.82;0.60;;;24.40;44.00;;;;;;4884871;28;45719;-68
2022/04/29 09:03:30;;;;;;;0.57;0.53;;;24.40;44.00;;;;;;4891154;28;45389;-68
2022/04/29 09:05:56;;;;;;;0.77;0.68;;;24.40;44.00;;;;;;4871812;29;45463;-69
2022/04/29 09:08:22;;;;;;;0.60;0.60;;;24.50;44.00;;;;;;4842768;29;44628;-69
2022/04/29 09:10:52;;;;;;;1.02;0.80;;;24.50;44.00;;;;;;4855135;29;44929;-68
2022/04/29 09:13:19;;;;;;;0.50;0.50;;;24.60;43.90;;;;;;4881283;29;45138;-68
2022/04/29 09:16:07;;;;;;;0.73;0.70;;;24.60;43.90;;;;;;4867856;29;45241;-68
2022/04/29 09:18:43;;;;;;;;;;;24.60;43.70;;;;;;4868171;29;45167;-68
2022/04/29 09:21:09;;;;;;;;;;;24.60;43.70;;;;;;4874368;29;44914;-68
2022/04/29 09:23:36;;;;;;;;;;;24.70;43.70;;;;;;4854983;29;44759;-70
2022/04/29 09:26:05;;;;;;;;;;;24.70;43.70;;;;;;4874559;29;45436;-70
2022/04/29 09:28:31;;;;;;;;;;;24.70;43.70;;;;;;4875993;29;45338;-72
2022/04/29 09:30:56;;;;;;;;;;;24.80;43.80;;;;;;4873763;29;45190;-69
2022/04/29 09:33:23;;;;;;;;;;;24.80;43.60;;;;;;4875860;29;44900;-71
2022/04/29 09:35:51;;;;;;;;;;;24.80;43.70;;;;;;4880189;28;47929;-70
2022/04/29 09:41:01;;;;;;;;;;;24.80;43.60;;;;;;4876050;29;46071;-71
2022/04/29 09:43:44;;;;;;;;;;;24.80;43.60;;;;;;4875832;29;45012;-71
2022/04/29 09:46:13;;;;;;;;;;;24.90;43.60;;;;;;4867703;29;45403;-71
2022/04/29 09:48:51;;;;;;;;;;;24.90;43.60;;;;;;4889696;29;45531;-71
2022/04/29 09:51:36;;;;;;;;;;;24.90;43.50;;;;;;4876867;29;45151;-72
2022/04/29 09:54:09;;;;;;;;;;;24.90;43.60;;;;;;4888343;28;44814;-71
2022/04/29 09:56:34;;;;;;;;;;;24.90;43.60;;;;;;4870936;29;47149;-69
2022/04/29 09:59:00;;;;;;;;;;;25.00;43.60;;;;;;4870153;29;46195;-68
2022/04/29 10:01:25;;;;;;;;;;;25.00;43.50;;;;;;4874307;29;45528;-70
2022/04/29 10:03:51;;;;;;;;;;;25.00;43.60;;;;;;4874354;29;44778;-69
2022/04/29 10:06:17;;;;;;;;;;;25.10;43.60;;;;;;4854337;29;45174;-68
2022/04/29 10:08:42;;;;;;;;;;;25.00;43.50;;;;;;4870710;29;45214;-67
2022/04/29 10:11:08;;;;;;;;;;;25.00;43.50;;;;;;4859087;29;45381;-68
2022/04/29 10:13:33;;;;;;;;;;;25.10;43.60;;;;;;4866377;29;44844;-68
2022/04/29 10:15:59;;;;;;;;;;;25.10;43.50;;;;;;4846205;29;46407;-67
2022/04/29 10:21:15;;;;;;;;;;;25.10;43.50;;;;;;4882060;29;46002;-67
2022/04/29 10:23:42;;;;;;;;;;;25.10;43.50;;;;;;4883841;29;44917;-67
2022/04/29 10:26:08;;;;;;;;;;;25.20;43.50;;;;;;4851312;29;46183;-68
2022/04/29 10:28:33;;;;;;;;;;;25.20;43.40;;;;;;4865825;29;44883;-68
2022/04/29 10:30:59;;;;;;;;;;;25.20;43.40;;;;;;4871874;29;46069;-68
2022/04/29 10:33:25;;;;;;;;;;;25.20;43.40;;;;;;4876432;28;45358;-68
2022/04/29 10:35:56;;;;;;;;;;;25.20;43.40;;;;;;4853527;29;46515;-66
2022/04/29 10:38:27;;;;;;;;;;;25.20;43.30;;;;;;4876461;29;45081;-68
2022/04/29 10:41:12;;;;;;;;;;;25.20;43.30;;;;;;4874885;29;44909;-68
2022/04/29 10:43:38;;;;;;;;;;;25.20;43.30;;;;;;4868663;29;46382;-66
2022/04/29 10:46:04;;;;;;;;;;;25.20;43.30;;;;;;4874867;29;45677;-68
2022/04/29 10:48:30;;;;;;;;;;;25.30;43.40;;;;;;4872884;28;45739;-68
2022/04/29 10:50:55;;;;;;;;;;;25.30;43.40;;;;;;4873532;29;45149;-68
2022/04/29 10:53:21;;;;;;;;;;;25.30;43.40;;;;;;4899871;28;45445;-67
2022/04/29 10:55:47;;;;;;;;;;;25.30;43.40;;;;;;4864159;29;45538;-68
2022/04/29 10:58:22;;;;;;;;;;;25.30;43.30;;;;;;4877252;29;45241;-67
2022/04/29 11:01:14;;;;;;;;;;;25.30;43.40;;;;;;4875568;29;45187;-69
2022/04/29 11:03:41;;;;;;;0.35;0.30;;;25.30;43.30;;;;;;4853580;29;45403;-67
2022/04/29 11:06:11;;;;;;;0.60;0.50;;;25.30;43.50;;;;;;4858477;29;45526;-69
2022/04/29 11:08:37;;;;;;;0.75;0.45;;;25.40;43.60;;;;;;4865724;29;45357;-69
2022/04/29 11:11:03;;;;;;;0.45;0.45;;;25.40;43.60;;;;;;4867856;29;45255;-69
2022/04/29 11:13:30;;;;;;;0.50;0.45;;;25.40;43.60;;;;;;4857368;29;45427;-71
2022/04/29 11:16:10;;;;;;;1.63;0.38;;;25.40;43.60;;;;;;4854963;29;47131;-68
2022/04/29 11:18:36;;;;;;;0.60;0.60;;;25.40;43.40;;;;;;4872337;29;45010;-69
2022/04/29 11:24:40;;;;;;;0.50;0.50;;;25.40;43.60;;;;;;4871996;29;45115;-72
2022/04/29 11:26:45;;;;;;;0.77;0.77;;;25.40;43.60;;;;;;4874226;29;46620;-70
2022/04/29 11:29:10;;;;;;;0.40;0.40;;;25.40;43.60;;;;;;4872072;29;45197;-70
2022/04/29 11:31:36;;;;;;;0.60;0.60;;;25.40;44.30;;;;;;4889077;28;45105;-69
2022/04/29 11:34:09;;;;;;;0.80;0.70;;;25.50;43.70;;;;;;4877051;29;45834;-70
2022/04/29 11:36:35;;;;;;;;;;;25.50;43.70;;;;;;4881887;29;45691;-70
2022/04/29 11:39:03;;;;;;;0.45;0.45;;;25.50;43.50;;;;;;4876513;29;45313;-70
2022/04/29 11:41:30;;;;;;;0.70;0.60;;;25.50;43.70;;;;;;4871496;28;45312;-72
2022/04/29 11:43:56;;;;;;;0.55;0.55;;;25.50;43.70;;;;;;4876474;28;44906;-70
2022/04/29 11:46:21;;;;;;;1.85;0.60;;;25.50;43.70;;;;;;4857356;29;45284;-69
2022/04/29 11:48:57;;;;;;;0.45;0.40;;;25.50;43.70;;;;;;4856509;28;45539;-70
2022/04/29 11:51:27;;;;;;;0.60;0.60;;;25.50;43.70;;;;;;4862537;28;45531;-69
2022/04/29 11:54:03;;;;;;;0.45;0.45;;;25.50;43.70;;;;;;4861227;28;45605;-70
2022/04/29 11:56:39;;;;;;;0.65;0.63;;;25.60;43.70;;;;;;4872021;29;45543;-70
2022/04/29 11:59:06;;;;;;;2.65;0.60;;;25.60;43.80;;;;;;4860004;29;45515;-69
2022/04/29 12:01:32;;;;;;;0.80;0.50;;;25.60;44.50;;;;;;4873324;29;45322;-70
2022/04/29 12:03:57;;;;;;;0.40;0.40;;;25.60;43.90;;;;;;4857888;29;45280;-69
2022/04/29 12:06:23;;;;;;;0.30;0.30;;;25.60;43.90;;;;;;4871263;29;45477;-69
2022/04/29 12:08:49;;;;;;;1.00;0.40;;;25.60;43.90;;;;;;4866527;29;45219;-69
2022/04/29 12:11:23;;;;;;;0.50;0.50;;;25.60;44.00;;;;;;4879722;28;45298;-69
2022/04/29 12:13:49;;;;;;;0.50;0.50;;;25.70;44.10;;;;;;4871810;29;45264;-70
2022/04/29 12:16:15;;;;;;;0.70;0.70;;;25.60;44.00;;;;;;4874274;29;46130;-69
2022/04/29 12:18:42;;;;;;;0.57;0.57;;;25.60;44.00;;;;;;4852185;29;45217;-69
2022/04/29 12:21:09;;;;;;;0.40;0.40;;;25.60;44.00;;;;;;4866159;29;45625;-71
2022/04/29 12:23:35;;;;;;;0.80;0.60;;;25.70;44.10;;;;;;4859709;29;45223;-70
2022/04/29 12:26:01;;;;;;;0.77;0.73;;;25.70;44.10;;;;;;4875108;29;45309;-71
2022/04/29 12:28:28;;;;;;;0.40;0.40;;;25.70;44.10;;;;;;4843836;29;45675;-72
2022/04/29 12:37:06;;;;;;;0.70;0.70;;;25.70;44.20;;;;;;4871463;29;44884;-68
2022/04/29 12:39:47;;;;;;;0.45;0.45;;;25.70;44.30;;;;;;4887205;28;45233;-68
2022/04/29 12:42:14;;;;;;;0.40;0.40;;;25.80;44.30;;;;;;4863335;29;45612;-69
2022/04/29 12:45:04;;;;;;;0.65;0.65;;;25.80;44.50;;;;;;4876333;29;45252;-69
2022/04/29 12:47:39;;;;;;;0.52;0.43;;;25.70;44.40;;;;;;4872206;29;47311;-68
2022/04/29 12:50:26;;;;;;;0.40;0.40;;;25.80;44.50;;;;;;4873828;29;45225;-70
2022/04/29 12:53:13;;;;;;;0.60;0.50;;;25.80;44.70;;;;;;4876718;29;45516;-68
2022/04/29 12:55:48;;;;;;;0.45;0.45;;;25.80;44.70;;;;;;4870137;29;45365;-67
2022/04/29 12:58:20;;;;;;;1.00;0.90;;;25.80;44.60;;;;;;4860894;29;45592;-67
2022/04/29 13:00:58;;;;;;;0.47;0.47;;;26.00;44.60;;;;;;4872291;29;45113;-68
2022/04/29 13:03:27;;;;;;;0.60;0.60;;;25.90;44.70;;;;;;4870911;29;45338;-68
2022/04/29 13:05:57;;;;;;;0.65;0.60;;;25.80;44.80;;;;;;4854529;29;45428;-68
2022/04/29 13:08:23;;;;;;;1.95;0.68;;;25.80;44.90;;;;;;4870680;29;45459;-68
2022/04/29 13:10:55;;;;;;;0.50;0.50;;;25.80;44.80;;;;;;4876545;28;45295;-68
2022/04/29 13:13:23;;;;;;;0.70;0.60;;;25.80;44.80;;;;;;4855248;29;45424;-68
2022/04/29 13:15:49;;;;;;;0.60;0.60;;;25.80;44.70;;;;;;4861473;29;45704;-68
2022/04/29 13:18:16;;;;;;;0.50;0.45;;;25.70;44.70;;;;;;4868438;29;46068;-68
2022/04/29 13:20:42;;;;;;;0.98;0.52;;;25.70;44.70;;;;;;4853846;29;45423;-68
2022/04/29 13:23:08;;;;;;;0.43;0.43;;;25.70;44.80;;;;;;4861275;29;45401;-68
2022/04/29 13:25:35;;;;;;;0.55;0.55;;;25.70;44.90;;;;;;4853912;29;45563;-67
2022/04/29 13:28:01;;;;;;;0.50;0.50;;;25.70;45.00;;;;;;4858233;29;46812;-68
2022/04/29 13:30:27;;;;;;;1.83;0.63;;;25.60;45.00;;;;;;4858641;29;44832;-68
2022/04/29 13:32:53;;;;;;;0.63;0.50;;;25.60;45.00;;;;;;4856311;29;45175;-68
2022/04/29 13:35:19;;;;;;;0.70;0.70;;;25.50;45.00;;;;;;4859337;29;45683;-68
2022/04/29 13:37:44;;;;;;;1.13;0.73;;;25.50;45.00;;;;;;4868225;29;45450;-68
2022/04/29 13:40:11;;;;;;;1.20;0.60;;;25.50;45.10;;;;;;4879713;28;45783;-68
2022/04/29 13:42:36;;;;;;;0.65;0.60;;;25.40;45.00;;;;;;4852063;29;45573;-68
2022/04/29 13:45:06;;;;;;;0.40;0.40;;;25.40;45.10;;;;;;4876514;28;45554;-68
2022/04/29 13:47:35;;;;;;;0.40;0.40;;;25.40;45.10;;;;;;4848561;29;45571;-68
2022/04/29 13:50:01;;;;;;;0.50;0.50;;;25.40;45.20;;;;;;4835068;29;45333;-68
2022/04/29 13:55:11;;;;;;;0.50;0.50;;;25.30;45.20;;;;;;4880597;28;45429;-68
2022/04/29 13:57:37;;;;;;;1.00;0.50;;;25.30;45.30;;;;;;4852452;29;46066;-68
2022/04/29 14:00:05;;;;;;;0.50;0.50;;;25.20;45.20;;;;;;4866691;29;45009;-68
2022/04/29 14:02:32;;;;;;;0.90;0.60;;;25.20;45.30;;;;;;4882070;28;45532;-68
2022/04/29 14:04:58;;;;;;;0.70;0.70;;;25.20;45.30;;;;;;4883021;28;45448;-68
2022/04/29 14:07:24;;;;;;;0.50;0.50;;;25.20;45.30;;;;;;4866373;29;46827;-68
2022/04/29 14:09:50;;;;;;;0.60;0.60;;;25.10;45.30;;;;;;4868603;28;45179;-68
2022/04/29 14:12:15;;;;;;;0.60;0.60;;;25.10;45.30;;;;;;4883491;28;45483;-68
2022/04/29 14:14:43;;;;;;;0.50;0.50;;;25.10;45.40;;;;;;4882095;28;45409;-68
2022/04/29 14:17:09;;;;;;;0.93;0.47;;;25.10;46.00;;;;;;4850626;29;45597;-68
2022/04/29 14:19:34;;;;;;;0.50;0.50;;;25.00;45.40;;;;;;4881082;29;45612;-68
2022/04/29 14:22:02;;;;;;;0.50;0.50;;;25.00;45.50;;;;;;4864951;29;45336;-68
2022/04/29 14:24:28;;;;;;;1.02;0.82;;;25.00;45.50;;;;;;4880527;28;45159;-68
2022/04/29 14:26:54;;;;;;;0.50;0.50;;;25.00;45.50;;;;;;4864771;29;46675;-68
2022/04/29 14:29:20;;;;;;;0.50;0.50;;;24.90;45.60;;;;;;4882318;29;45055;-68
2022/04/29 14:31:45;;;;;;;0.50;0.50;;;24.90;45.60;;;;;;4832866;28;44733;-68
2022/04/29 14:34:12;;;;;;;0.40;0.40;;;24.90;45.60;;;;;;4867601;28;44811;-68
2022/04/29 14:36:39;;;;;;;0.50;0.50;;;24.90;45.60;;;;;;4881549;28;45978;-70
2022/04/29 14:39:04;;;;;;;0.50;0.50;;;24.90;45.60;;;;;;4865824;29;44761;-68
2022/04/29 14:41:30;;;;;;;0.50;0.50;;;24.90;45.60;;;;;;4880250;28;45265;-68
2022/04/29 14:43:57;;;;;;;0.40;0.40;;;24.80;45.60;;;;;;4862489;29;45610;-68
2022/04/29 14:46:23;;;;;;;0.60;0.60;;;24.80;45.70;;;;;;4874438;29;45740;-68
2022/04/29 14:48:49;;;;;;;0.85;0.70;;;24.80;45.70;;;;;;4878250;29;45392;-68
2022/04/29 14:51:15;;;;;;;0.43;0.43;;;24.80;45.70;;;;;;4863109;28;45592;-68
2022/04/29 14:53:40;;;;;;;1.17;0.50;;;24.80;45.70;;;;;;4878890;28;44993;-68
2022/04/29 14:56:07;;;;;;;0.40;0.40;;;24.80;45.70;;;;;;4849352;29;45099;-68
2022/04/29 14:58:33;;;;;;;0.60;0.60;;;24.80;45.70;;;;;;4884778;29;45792;-68
2022/04/29 15:00:58;;;;;;;0.50;0.50;;;24.70;45.70;;;;;;4868898;28;45083;-68
2022/04/29 15:03:24;;;;;;;0.55;0.50;;;24.70;45.70;;;;;;4866531;28;47869;-68
2022/04/29 15:05:50;;;;;;;0.60;0.60;;;24.70;45.70;;;;;;4868950;29;45470;-68
2022/04/29 15:08:16;;;;;;;0.45;0.45;;;24.70;45.70;;;;;;4885221;29;45585;-68
2022/04/29 15:16:11;;;;;;;0.40;0.40;;;24.60;45.80;;;;;;4872415;28;46075;-68
2022/04/29 15:18:38;;;;;;;0.47;0.47;;;24.60;45.90;;;;;;4882717;28;45295;-69
2022/04/29 15:21:04;;;;;;;0.55;0.55;;;24.60;45.80;;;;;;4881052;28;45012;-68
2022/04/29 15:23:29;;;;;;;0.55;0.55;;;24.60;45.90;;;;;;4883223;28;45587;-68
2022/04/29 15:25:55;;;;;;;0.57;0.57;;;24.60;45.90;;;;;;4864726;29;45263;-68
2022/04/29 15:28:21;;;;;;;0.65;0.65;;;24.50;45.80;;;;;;4849974;29;45483;-68
2022/04/29 15:30:47;;;;;;;0.40;0.40;;;24.50;45.80;;;;;;4865177;28;45195;-68
2022/04/29 15:33:13;;;;;;;0.60;0.60;;;24.50;45.80;;;;;;4852609;29;45706;-68
2022/04/29 15:35:39;;;;;;;0.50;0.50;;;24.50;45.80;;;;;;4856493;29;46612;-68
2022/04/29 15:38:05;;;;;;;0.50;0.50;;;24.50;45.80;;;;;;4877442;28;45598;-68
2022/04/29 15:40:31;;;;;;;0.60;0.60;;;24.50;45.80;;;;;;4863279;28;45404;-68
2022/04/29 15:42:59;;;;;;;0.85;0.77;;;24.50;45.90;;;;;;4862304;29;46046;-68
2022/04/29 15:45:25;;;;;;;1.05;0.98;;;24.50;45.90;;;;;;4850248;29;45783;-68
2022/04/29 15:47:51;;;;;;;0.65;0.60;;;24.40;45.90;;;;;;4852653;29;46232;-68
2022/04/29 15:50:16;;;;;;;0.40;0.40;;;24.40;45.90;;;;;;4867579;29;45335;-68
2022/04/29 15:52:42;;;;;;;0.63;0.63;;;24.40;45.90;;;;;;4882902;28;45695;-69
2022/04/29 15:55:08;;;;;;;0.60;0.60;;;24.40;45.90;;;;;;4868702;29;45513;-69
2022/04/29 15:57:35;;;;;;;0.55;0.55;;;24.40;45.90;;;;;;4867224;29;45201;-69
2022/04/29 16:00:02;;;;;;;0.68;0.68;;;24.40;45.90;;;;;;4836110;29;45466;-68
2022/04/29 16:02:28;;;;;;;0.45;0.45;;;24.40;45.90;;;;;;4865658;29;45180;-68
2022/04/29 16:04:53;;;;;;;0.60;0.60;;;24.40;45.90;;;;;;4848567;29;46129;-68
2022/04/29 16:07:19;;;;;;;0.60;0.55;;;24.40;45.90;;;;;;4852249;29;45533;-68
2022/04/29 16:09:44;;;;;;;0.60;0.55;;;24.30;45.90;;;;;;4866306;28;44728;-68
2022/04/29 16:12:10;;;;;;;0.85;0.60;;;24.30;45.80;;;;;;4839556;29;44933;-69
2022/04/29 16:14:38;;;;;;;0.60;0.60;;;24.30;45.90;;;;;;4847869;29;46104;-68
2022/04/29 16:17:06;;;;;;;0.50;0.50;;;24.30;45.90;;;;;;4866113;29;45097;-68
2022/04/29 16:25:35;;;;;;;0.52;0.52;;;24.30;45.90;;;;;;4851225;29;45058;-68
2022/04/29 16:27:45;;;;;;;0.50;0.50;;;24.30;45.90;;;;;;4873180;29;45352;-68
2022/04/29 16:30:11;;;;;;;0.50;0.50;;;24.20;45.90;;;;;;4865364;29;45407;-69
2022/04/29 16:32:37;;;;;;;0.55;0.55;;;24.20;46.00;;;;;;4847863;29;45723;-68
2022/04/29 16:35:02;;;;;;;0.60;0.60;;;24.10;46.00;;;;;;4860965;29;47177;-68
2022/04/29 16:37:31;;;;;;;1.00;0.80;;;24.10;45.90;;;;;;4865337;29;45395;-68
2022/04/29 16:39:58;;;;;;;0.65;0.65;;;24.10;46.00;;;;;;4869235;28;44840;-68
2022/04/29 16:42:23;;;;;;;0.50;0.50;;;24.10;46.00;;;;;;4864163;29;45575;-68